Weather History for KGAF - April, 2014

Change the Weather History Date:

Wednesday, April 16, 2014

  Actual Average (KGFK) Record (KGFK)
Temperature  
Mean Temperature 30 °F 42 °F  
Max Temperature 37 °F 55 °F 87 °F (2002)
Min Temperature 24 °F 30 °F 14 °F (1953)
Degree Days  
Heating Degree Days 34 23  
Month to date heating degree days 428  
Since 1 July heating degree days 8813  
Cooling Degree Days 0 0  
Month to date cooling degree days 0  
Year to date cooling degree days 0  
Moisture  
Dew Point 13 °F    
Average Humidity 50    
Maximum Humidity 69    
Minimum Humidity 33    
Precipitation  
Precipitation 0.00 in 0.03 in 0.24 in (2003)
Month to date precipitation 0.46  
Year to date precipitation 2.49  
Snow  
Snow 0.00 in 0.10 in 2.00 in (2003)
Month to date snowfall 1.8  
Since 1 July snowfall 46.2  
Snow Depth -    
Sea Level Pressure  
Sea Level Pressure 30.17 in    
Wind  
Wind Speed 15 mph (NE)    
Max Wind Speed 20 mph    
Max Gust Speed 28 mph    
Visibility 10 miles    
Events      
T = Trace of Precipitation, MM = Missing Value Source: NWS Daily Summary

Daily Weather History Graph

Daily Weather History Graph

Search for Another Location

Airport or City:

Trip Planner

Search our weather history database for the weather conditions in past years. The results will help you decide how hot, cold, wet, or windy it might be!

Date:

Astronomy

Apr. 16, 2014 Rise Set
Actual Time 6:37 AM CDT 8:22 PM CDT
Civil Twilight 6:04 AM CDT 8:55 PM CDT
Nautical Twilight 5:23 AM CDT 9:35 PM CDT
Astronomical Twilight 4:39 AM CDT 10:20 PM CDT
Moon 10:14 PM CDT (4/16) 7:20 AM CDT (4/16)
Length of Visible Light 14h 50m
Length of Day
13h 44m
Full, 98% of the Moon is Illuminated
Apr 16
Full
Apr 22
Last Quarter
Apr 29
New
May 6
First Quarter
May 14
Full

Hourly Weather History & Observations

Time (CDT) Temp. Windchill Dew Point Humidity Pressure Visibility Wind Dir Wind Speed Gust Speed Precip Events Conditions
12:15 AM 28.4 °F 18.0 °F 17.6 °F 64% 30.03 in 10.0 mi East 12.7 mph - N/A   Clear
12:35 AM 28.4 °F 18.0 °F 17.6 °F 64% 30.03 in 10.0 mi East 12.7 mph - N/A   Scattered Clouds
12:55 AM 28.4 °F 17.0 °F 15.8 °F 59% 30.03 in 10.0 mi East 15.0 mph - N/A   Overcast
1:15 AM 26.6 °F 16.2 °F 15.8 °F 64% 30.04 in 10.0 mi East 11.5 mph - N/A   Overcast
1:35 AM 26.6 °F 15.7 °F 17.6 °F 69% 30.04 in 10.0 mi East 12.7 mph - N/A   Overcast
1:55 AM 26.6 °F 15.2 °F 15.8 °F 64% 30.04 in 10.0 mi East 13.8 mph - N/A   Scattered Clouds
2:15 AM 26.6 °F 16.2 °F 15.8 °F 64% 30.04 in 10.0 mi East 11.5 mph - N/A   Mostly Cloudy
2:35 AM 26.6 °F 15.2 °F 15.8 °F 64% 30.04 in 10.0 mi East 13.8 mph - N/A   Scattered Clouds
2:55 AM 26.6 °F 16.2 °F 14.0 °F 59% 30.05 in 10.0 mi East 11.5 mph - N/A   Mostly Cloudy
3:15 AM 26.6 °F 15.7 °F 14.0 °F 59% 30.05 in 10.0 mi ENE 12.7 mph - N/A   Overcast
3:35 AM 26.6 °F 15.7 °F 14.0 °F 59% 30.05 in 10.0 mi ENE 12.7 mph - N/A   Overcast
3:55 AM 26.6 °F 16.2 °F 14.0 °F 59% 30.06 in 10.0 mi ENE 11.5 mph - N/A   Scattered Clouds
4:15 AM 26.6 °F 16.2 °F 12.2 °F 55% 30.06 in 10.0 mi ENE 11.5 mph - N/A   Clear
4:35 AM 26.6 °F 15.7 °F 12.2 °F 55% 30.07 in 10.0 mi ENE 12.7 mph - N/A   Clear
4:55 AM 26.6 °F 15.2 °F 10.4 °F 51% 30.07 in 10.0 mi East 13.8 mph - N/A   Clear
5:15 AM 26.6 °F 15.7 °F 10.4 °F 51% 30.07 in 10.0 mi East 12.7 mph - N/A   Mostly Cloudy
5:35 AM 26.6 °F 15.2 °F 10.4 °F 51% 30.07 in 10.0 mi ENE 13.8 mph - N/A   Mostly Cloudy
5:55 AM 26.6 °F 14.7 °F 10.4 °F 51% 30.08 in 10.0 mi East 15.0 mph - N/A   Scattered Clouds
6:15 AM 24.8 °F 11.5 °F 12.2 °F 59% 30.08 in 10.0 mi ENE 17.3 mph - N/A   Partly Cloudy
6:35 AM 24.8 °F 12.9 °F 12.2 °F 59% 30.09 in 10.0 mi ENE 13.8 mph 19.6 mph N/A   Clear
6:55 AM 24.8 °F 12.9 °F 12.2 °F 59% 30.10 in 10.0 mi ENE 13.8 mph - N/A   Clear
7:15 AM 24.8 °F 11.9 °F 12.2 °F 59% 30.11 in 10.0 mi ENE 16.1 mph 19.6 mph N/A   Mostly Cloudy
7:35 AM 26.6 °F 13.4 °F 10.4 °F 51% 30.11 in 10.0 mi East 18.4 mph - N/A   Overcast
7:55 AM 26.6 °F 15.7 °F 10.4 °F 51% 30.12 in 10.0 mi ENE 12.7 mph - N/A   Mostly Cloudy
8:15 AM 26.6 °F 14.3 °F 10.4 °F 51% 30.13 in 10.0 mi ENE 16.1 mph - N/A   Clear
8:35 AM 28.4 °F 17.0 °F 10.4 °F 47% 30.13 in 10.0 mi ENE 15.0 mph 21.9 mph N/A   Clear
8:55 AM 28.4 °F 16.6 °F 10.4 °F 47% 30.14 in 10.0 mi ENE 16.1 mph - N/A   Clear
9:15 AM 28.4 °F 15.8 °F 10.4 °F 47% 30.14 in 10.0 mi ENE 18.4 mph - N/A   Clear
9:35 AM 30.2 °F 18.5 °F 10.4 °F 44% 30.15 in 10.0 mi ENE 17.3 mph 23.0 mph N/A   Mostly Cloudy
9:55 AM 32.0 °F 20.8 °F 10.4 °F 41% 30.15 in 10.0 mi ENE 17.3 mph - N/A   Partly Cloudy
10:15 AM 32.0 °F 22.5 °F 10.4 °F 41% 30.15 in 10.0 mi ENE 12.7 mph - N/A   Clear
10:35 AM 32.0 °F 20.8 °F 10.4 °F 41% 30.15 in 10.0 mi ENE 17.3 mph 21.9 mph N/A   Clear
10:55 AM 32.0 °F 22.1 °F 10.4 °F 41% 30.16 in 10.0 mi ENE 13.8 mph 20.7 mph N/A   Clear
11:15 AM 33.8 °F 23.5 °F 10.4 °F 38% 30.16 in 10.0 mi ENE 16.1 mph - N/A   Clear
11:35 AM 33.8 °F 23.2 °F 12.2 °F 41% 30.16 in 10.0 mi NE 17.3 mph - N/A   Clear
11:55 AM 35.6 °F 25.5 °F 14.0 °F 41% 30.17 in 10.0 mi NE 17.3 mph 24.2 mph N/A   Clear
12:15 PM 35.6 °F 24.8 °F 14.0 °F 41% 30.17 in 10.0 mi NE 19.6 mph 24.2 mph N/A   Clear
12:35 PM 35.6 °F 25.5 °F 14.0 °F 41% 30.17 in 10.0 mi NE 17.3 mph 26.5 mph N/A   Clear
12:55 PM 35.6 °F 25.2 °F 12.2 °F 38% 30.17 in 10.0 mi NE 18.4 mph 27.6 mph N/A   Clear
1:15 PM 35.6 °F 25.2 °F 12.2 °F 38% 30.17 in 10.0 mi ENE 18.4 mph 25.3 mph N/A   Clear
1:35 PM 35.6 °F 25.2 °F 10.4 °F 35% 30.18 in 10.0 mi NE 18.4 mph 25.3 mph N/A   Clear
1:55 PM 35.6 °F 24.8 °F 10.4 °F 35% 30.19 in 10.0 mi NE 19.6 mph 24.2 mph N/A   Clear
2:15 PM 37.4 °F 27.2 °F 10.4 °F 33% 30.19 in 10.0 mi ENE 19.6 mph 24.2 mph N/A   Clear
2:35 PM 37.4 °F 28.2 °F 12.2 °F 36% 30.20 in 10.0 mi NE 16.1 mph 23.0 mph N/A   Clear
2:55 PM 37.4 °F 27.5 °F 12.2 °F 36% 30.20 in 10.0 mi NE 18.4 mph 24.2 mph N/A   Clear
3:15 PM 37.4 °F 27.8 °F 10.4 °F 33% 30.20 in 10.0 mi NE 17.3 mph 25.3 mph N/A   Clear
3:35 PM 37.4 °F 27.2 °F 12.2 °F 36% 30.20 in 10.0 mi NE 19.6 mph 25.3 mph N/A   Clear
3:55 PM 37.4 °F 28.5 °F 10.4 °F 33% 30.20 in 10.0 mi NE 15.0 mph 23.0 mph N/A   Clear
4:15 PM 37.4 °F 27.2 °F 10.4 °F 33% 30.21 in 10.0 mi NNE 19.6 mph 24.2 mph N/A   Clear
4:35 PM 37.4 °F 28.5 °F 10.4 °F 33% 30.22 in 10.0 mi NE 15.0 mph 23.0 mph N/A   Clear
4:55 PM 37.4 °F 27.8 °F 10.4 °F 33% 30.22 in 10.0 mi NE 17.3 mph 21.9 mph N/A   Clear
5:15 PM 37.4 °F 28.2 °F 10.4 °F 33% 30.22 in 10.0 mi NNE 16.1 mph 23.0 mph N/A   Clear
5:35 PM 37.4 °F 28.9 °F 10.4 °F 33% 30.23 in 10.0 mi NE 13.8 mph - N/A   Clear
5:55 PM 37.4 °F 27.8 °F 10.4 °F 33% 30.23 in 10.0 mi NNE 17.3 mph - N/A   Clear
6:35 PM 37.4 °F 28.9 °F 10.4 °F 33% 30.25 in 10.0 mi NE 13.8 mph - N/A   Clear
6:55 PM 35.6 °F 25.2 °F 10.4 °F 35% 30.25 in 10.0 mi NE 18.4 mph 21.9 mph N/A   Clear
7:15 PM 35.6 °F 27.1 °F 10.4 °F 35% 30.25 in 10.0 mi NE 12.7 mph 18.4 mph N/A   Clear
7:35 PM 32.0 °F 20.8 °F 17.6 °F 55% 30.26 in 10.0 mi North 17.3 mph - N/A   Clear
7:55 PM 32.0 °F 20.8 °F 17.6 °F 55% 30.26 in 10.0 mi North 17.3 mph 20.7 mph N/A   Clear
8:15 PM 32.0 °F 21.6 °F 17.6 °F 55% 30.27 in 10.0 mi North 15.0 mph - N/A   Clear
8:35 PM 30.2 °F 18.1 °F 17.6 °F 60% 30.27 in 10.0 mi North 18.4 mph 21.9 mph N/A   Clear
8:55 PM 30.2 °F 18.9 °F 17.6 °F 60% 30.28 in 10.0 mi North 16.1 mph 23.0 mph N/A   Clear
9:15 PM 28.4 °F 17.0 °F 17.6 °F 64% 30.29 in 10.0 mi North 15.0 mph - N/A   Clear
9:35 PM 28.4 °F 16.2 °F 17.6 °F 64% 30.30 in 10.0 mi North 17.3 mph - N/A   Clear
9:55 PM 28.4 °F 16.6 °F 17.6 °F 64% 30.31 in 10.0 mi North 16.1 mph - N/A   Clear
10:15 PM 28.4 °F 16.6 °F 17.6 °F 64% 30.31 in 10.0 mi North 16.1 mph 20.7 mph N/A   Clear
10:35 PM 26.6 °F 15.7 °F 17.6 °F 69% 30.31 in 10.0 mi North 12.7 mph 20.7 mph N/A   Clear
10:55 PM 26.6 °F 15.7 °F 17.6 °F 69% 30.32 in 10.0 mi North 12.7 mph 18.4 mph N/A   Clear
11:15 PM 26.6 °F 15.7 °F 15.8 °F 64% 30.32 in 10.0 mi North 12.7 mph 20.7 mph N/A   Clear
11:35 PM 26.6 °F 16.2 °F 15.8 °F 64% 30.32 in 10.0 mi North 11.5 mph - N/A   Clear
11:55 PM 26.6 °F 15.7 °F 15.8 °F 64% 30.32 in 10.0 mi North 12.7 mph - N/A   Clear